Time;durP1;ratioP1;P1;durP2;ratioP2;P2;SDS_P1;SDS_P2;PMS_P1;PMS_P2;Temp;Humidity;BMP_temperature;BMP_pressure;BME280_temperature;BME280_humidity;BME280_pressure;Samples;Min_cycle;Max_cycle;Signal;HPM_P1;HPM_P2
2023/08/04 00:02:20;;;;;;;3.65;0.93;;;14.70;99.90;;;;;;4916181;29;20036;-72
2023/08/04 00:04:46;;;;;;;6.00;1.50;;;14.70;99.90;;;;;;4915146;29;20027;-71
2023/08/04 00:07:11;;;;;;;5.18;1.10;;;14.70;99.90;;;;;;4915003;29;20043;-72
2023/08/04 00:09:37;;;;;;;4.80;1.25;;;14.70;99.90;;;;;;4918222;28;20043;-70
2023/08/04 00:12:03;;;;;;;5.97;1.50;;;14.60;99.90;;;;;;4919111;28;20039;-72
2023/08/04 00:14:28;;;;;;;7.68;1.92;;;14.60;99.90;;;;;;4924611;29;20047;-73
2023/08/04 00:16:54;;;;;;;13.35;1.60;;;14.60;99.90;;;;;;4924803;28;20035;-72
2023/08/04 00:19:20;;;;;;;7.22;1.10;;;14.60;99.90;;;;;;4925186;29;20122;-70
2023/08/04 00:21:45;;;;;;;10.95;2.08;;;14.60;99.90;;;;;;4925350;29;20040;-71
2023/08/04 00:24:11;;;;;;;5.93;1.45;;;14.60;99.90;;;;;;4925283;28;20059;-71
2023/08/04 00:26:36;;;;;;;8.27;1.50;;;14.50;99.90;;;;;;4925770;29;20032;-71
2023/08/04 00:29:02;;;;;;;9.45;1.10;;;14.50;99.90;;;;;;4923972;28;20402;-70
2023/08/04 00:31:27;;;;;;;6.65;1.38;;;14.50;99.90;;;;;;4924333;29;20479;-73
2023/08/04 00:33:55;;;;;;;6.43;0.90;;;14.50;99.90;;;;;;4923285;28;20063;-74
2023/08/04 00:36:20;;;;;;;4.53;1.08;;;14.40;99.90;;;;;;4923239;29;20044;-72
2023/08/04 00:38:46;;;;;;;8.05;1.30;;;14.50;99.90;;;;;;4927261;28;20558;-70
2023/08/04 00:41:11;;;;;;;7.90;2.15;;;14.50;99.90;;;;;;4929660;28;20040;-72
2023/08/04 00:43:37;;;;;;;5.53;1.20;;;14.60;99.90;;;;;;4924392;29;20040;-72
2023/08/04 00:46:03;;;;;;;9.05;1.50;;;14.60;99.90;;;;;;4924298;28;20499;-72
2023/08/04 00:48:28;;;;;;;3.50;0.90;;;14.60;99.90;;;;;;4924956;29;20494;-71
2023/08/04 00:50:54;;;;;;;5.85;0.95;;;14.70;99.90;;;;;;4924850;28;20079;-71
2023/08/04 00:53:20;;;;;;;5.70;1.17;;;14.70;99.90;;;;;;4927028;28;20032;-71
2023/08/04 00:55:46;;;;;;;3.67;1.40;;;14.70;99.90;;;;;;4926242;28;20479;-71
2023/08/04 00:58:12;;;;;;;13.07;2.03;;;14.80;99.90;;;;;;4922291;28;20039;-70
2023/08/04 01:00:39;;;;;;;5.43;1.08;;;14.80;99.90;;;;;;4924339;29;20090;-70
2023/08/04 01:03:05;;;;;;;8.75;1.50;;;14.80;99.90;;;;;;4924412;28;20031;-70
2023/08/04 01:05:42;;;;;;;3.55;1.05;;;14.80;99.90;;;;;;4923595;29;20044;-72
2023/08/04 01:08:22;;;;;;;4.55;1.30;;;14.80;99.90;;;;;;4924452;28;21343;-71
2023/08/04 01:10:57;;;;;;;5.93;1.70;;;14.90;99.90;;;;;;4921413;29;20107;-72
2023/08/04 01:13:24;;;;;;;6.40;1.67;;;14.80;99.90;;;;;;4918971;29;20028;-71
2023/08/04 01:15:52;;;;;;;5.05;1.45;;;14.90;99.90;;;;;;4926485;28;20070;-73
2023/08/04 01:18:24;;;;;;;6.30;1.55;;;14.90;99.90;;;;;;4926637;29;20075;-71
2023/08/04 01:20:50;;;;;;;3.90;1.25;;;14.90;99.90;;;;;;4927396;28;20078;-72
2023/08/04 01:23:16;;;;;;;13.30;1.63;;;14.90;99.90;;;;;;4926480;29;20618;-72
2023/08/04 01:25:42;;;;;;;7.80;1.10;;;14.90;99.90;;;;;;4928575;28;20491;-72
2023/08/04 01:28:16;;;;;;;9.35;1.10;;;14.90;99.90;;;;;;4925905;28;20035;-71
2023/08/04 01:30:48;;;;;;;6.78;1.17;;;15.00;99.90;;;;;;4926436;29;20062;-72
2023/08/04 01:33:15;;;;;;;4.20;1.20;;;15.00;99.90;;;;;;4926573;29;20044;-72
2023/08/04 01:35:42;;;;;;;11.32;1.20;;;15.00;99.90;;;;;;4946735;28;20025;-72
2023/08/04 01:38:08;;;;;;;4.80;1.65;;;15.00;99.90;;;;;;4972979;28;20028;-72
2023/08/04 01:40:34;;;;;;;9.75;2.13;;;15.00;99.90;;;;;;4975431;28;20033;-72
2023/08/04 01:42:59;;;;;;;8.02;1.10;;;15.00;99.90;;;;;;4956940;28;20598;-73
2023/08/04 01:45:25;;;;;;;4.90;1.08;;;15.00;99.90;;;;;;4919270;28;20062;-71
2023/08/04 01:47:51;;;;;;;6.72;1.00;;;14.90;99.90;;;;;;4922092;28;20478;-71
2023/08/04 01:50:17;;;;;;;5.15;1.10;;;14.90;99.90;;;;;;4926067;29;20567;-72
2023/08/04 01:52:43;;;;;;;4.20;1.10;;;14.80;99.90;;;;;;4928117;28;20123;-73
2023/08/04 01:55:08;;;;;;;2.25;0.70;;;14.80;99.90;;;;;;4925250;28;20135;-70
2023/08/04 01:57:34;;;;;;;4.25;1.40;;;14.70;99.90;;;;;;4925762;29;20369;-72
2023/08/04 01:59:59;;;;;;;17.98;1.48;;;14.70;99.90;;;;;;4917686;28;20496;-71
2023/08/04 02:02:25;;;;;;;2.25;0.90;;;14.60;99.90;;;;;;4919267;28;20044;-71
2023/08/04 02:04:51;;;;;;;6.10;0.95;;;14.60;99.90;;;;;;4919010;28;20039;-71
2023/08/04 02:07:16;;;;;;;5.68;1.17;;;14.60;99.90;;;;;;4918693;28;20027;-71
2023/08/04 02:09:42;;;;;;;7.00;1.10;;;14.60;99.90;;;;;;4918405;28;20055;-72
2023/08/04 02:12:08;;;;;;;4.28;1.08;;;14.60;99.90;;;;;;4920497;28;20059;-72
2023/08/04 02:14:33;;;;;;;5.07;1.08;;;14.60;99.90;;;;;;4927622;28;20067;-71
2023/08/04 02:16:59;;;;;;;5.45;1.08;;;14.60;99.90;;;;;;4926960;28;20046;-72
2023/08/04 02:19:25;;;;;;;9.23;1.00;;;14.60;99.90;;;;;;4925702;29;20048;-70
2023/08/04 02:21:51;;;;;;;9.45;1.95;;;14.70;99.90;;;;;;4925343;28;20032;-72
2023/08/04 02:24:17;;;;;;;5.88;1.55;;;14.70;99.90;;;;;;4927311;28;20032;-71
2023/08/04 02:26:46;;;;;;;4.45;1.15;;;14.70;99.90;;;;;;4927501;28;20785;-72
2023/08/04 02:29:12;;;;;;;8.07;1.20;;;14.70;99.90;;;;;;4925134;28;20487;-72
2023/08/04 02:31:38;;;;;;;7.25;1.90;;;14.70;99.90;;;;;;4927622;28;20074;-71
2023/08/04 02:34:04;;;;;;;9.32;1.65;;;14.70;99.90;;;;;;4924935;28;20055;-72
2023/08/04 02:36:30;;;;;;;4.38;1.00;;;14.70;99.90;;;;;;4926077;29;20535;-72
2023/08/04 02:38:55;;;;;;;4.40;1.52;;;14.70;99.90;;;;;;4925118;28;20039;-73
2023/08/04 02:41:21;;;;;;;6.28;1.63;;;14.70;99.90;;;;;;4927096;28;20558;-72
2023/08/04 02:43:47;;;;;;;10.68;1.63;;;14.70;99.90;;;;;;4926890;28;20533;-71
2023/08/04 02:46:12;;;;;;;4.82;1.63;;;14.80;99.90;;;;;;4925693;28;20040;-73
2023/08/04 02:48:39;;;;;;;6.68;1.88;;;14.80;99.90;;;;;;4925849;29;20422;-70
2023/08/04 02:51:08;;;;;;;7.78;1.98;;;14.80;99.90;;;;;;4924990;28;20059;-71
2023/08/04 02:53:36;;;;;;;4.63;1.60;;;14.90;99.90;;;;;;4927290;28;20032;-70
2023/08/04 02:56:13;;;;;;;9.07;1.45;;;14.90;99.90;;;;;;4926269;28;20530;-70
2023/08/04 02:58:39;;;;;;;8.52;2.88;;;14.90;99.90;;;;;;4922129;29;20048;-71
2023/08/04 03:01:04;;;;;;;4.90;1.65;;;14.90;99.90;;;;;;4918218;28;20032;-71
2023/08/04 03:03:33;;;;;;;9.75;1.38;;;15.00;99.90;;;;;;4917811;28;20039;-71
2023/08/04 03:06:00;;;;;;;8.48;1.25;;;15.00;99.90;;;;;;4920651;28;20122;-71
2023/08/04 03:08:27;;;;;;;7.63;1.95;;;15.00;99.90;;;;;;4916385;28;20250;-72
2023/08/04 03:10:53;;;;;;;4.53;1.23;;;15.00;99.90;;;;;;4915927;28;20128;-71
2023/08/04 03:13:18;;;;;;;5.50;1.67;;;15.00;99.90;;;;;;4915193;29;20054;-72
2023/08/04 03:15:44;;;;;;;11.93;1.98;;;15.00;99.90;;;;;;4913833;29;20085;-71
2023/08/04 03:18:09;;;;;;;4.53;1.20;;;15.00;99.90;;;;;;4914399;28;20612;-71
2023/08/04 03:20:37;;;;;;;10.00;1.30;;;15.00;99.90;;;;;;4916962;29;20044;-72
2023/08/04 03:23:04;;;;;;;6.60;1.90;;;15.00;99.90;;;;;;4916377;28;20059;-71
2023/08/04 03:25:29;;;;;;;5.82;1.55;;;15.00;99.90;;;;;;4918131;28;20040;-72
2023/08/04 03:27:55;;;;;;;6.53;1.30;;;15.00;99.90;;;;;;4914260;28;20039;-71
2023/08/04 03:30:21;;;;;;;3.60;1.55;;;15.00;99.90;;;;;;4917420;29;20035;-71
2023/08/04 03:32:46;;;;;;;15.02;1.35;;;15.00;99.90;;;;;;4918608;28;20046;-71
2023/08/04 03:35:12;;;;;;;9.45;1.70;;;15.10;99.90;;;;;;4917133;28;20040;-71
2023/08/04 03:37:38;;;;;;;7.32;1.63;;;15.10;99.90;;;;;;4920331;29;20051;-71
2023/08/04 03:40:04;;;;;;;6.68;1.20;;;15.10;99.90;;;;;;4924375;28;20044;-71
2023/08/04 03:42:30;;;;;;;5.13;1.80;;;15.10;99.90;;;;;;4925014;29;20183;-71
2023/08/04 03:44:56;;;;;;;5.63;1.30;;;15.10;99.90;;;;;;4925449;28;20043;-72
2023/08/04 03:47:21;;;;;;;8.60;2.42;;;15.10;99.90;;;;;;4925505;29;20492;-70
2023/08/04 03:49:47;;;;;;;5.90;1.38;;;15.10;99.90;;;;;;4924532;29;20407;-70
2023/08/04 03:52:13;;;;;;;6.28;1.30;;;15.10;99.90;;;;;;4925245;28;20581;-71
2023/08/04 03:54:38;;;;;;;4.63;1.58;;;15.10;99.90;;;;;;4924993;29;20055;-71
2023/08/04 03:57:05;;;;;;;8.52;2.60;;;15.10;99.90;;;;;;4924498;28;20734;-71
2023/08/04 03:59:30;;;;;;;15.38;1.83;;;15.10;99.90;;;;;;4917332;29;20044;-69
2023/08/04 04:01:56;;;;;;;7.95;1.92;;;15.10;99.90;;;;;;4916371;28;20116;-71
2023/08/04 04:04:21;;;;;;;9.85;1.60;;;15.10;99.90;;;;;;4922315;28;20127;-71
2023/08/04 04:06:47;;;;;;;5.88;1.85;;;15.20;99.90;;;;;;4975089;28;20072;-71
2023/08/04 04:09:14;;;;;;;5.78;1.70;;;15.10;99.90;;;;;;4965350;28;20032;-72
2023/08/04 04:11:40;;;;;;;7.28;2.47;;;15.20;99.90;;;;;;4926153;28;20109;-72
2023/08/04 04:14:05;;;;;;;11.85;2.20;;;15.20;99.90;;;;;;4924810;28;20040;-72
2023/08/04 04:16:31;;;;;;;6.13;1.58;;;15.20;99.90;;;;;;4926443;28;20039;-72
2023/08/04 04:18:56;;;;;;;7.47;2.05;;;15.10;99.90;;;;;;4924581;28;20039;-70
2023/08/04 04:21:22;;;;;;;4.00;1.50;;;15.20;99.90;;;;;;4925120;28;20040;-73
2023/08/04 04:23:48;;;;;;;5.25;1.63;;;15.20;99.90;;;;;;4924859;29;20896;-70
2023/08/04 04:26:14;;;;;;;5.90;1.70;;;15.20;99.90;;;;;;4925344;28;20043;-70
2023/08/04 04:28:40;;;;;;;8.90;2.22;;;15.20;99.90;;;;;;4925263;29;20028;-69
2023/08/04 04:31:05;;;;;;;6.30;2.00;;;15.20;99.90;;;;;;4924800;28;20032;-70
2023/08/04 04:33:31;;;;;;;5.47;1.90;;;15.20;99.90;;;;;;4924945;28;20032;-71
2023/08/04 04:35:57;;;;;;;5.35;1.75;;;15.20;99.90;;;;;;4915099;28;20041;-71
2023/08/04 04:38:28;;;;;;;4.40;1.58;;;15.30;99.90;;;;;;4923914;29;20587;-70
2023/08/04 04:40:57;;;;;;;9.05;1.95;;;15.20;99.90;;;;;;4923466;28;20039;-71
2023/08/04 04:43:24;;;;;;;4.53;1.77;;;15.30;99.90;;;;;;4924444;29;20050;-71
2023/08/04 04:45:51;;;;;;;11.35;2.25;;;15.20;99.90;;;;;;4926172;28;20374;-71
2023/08/04 04:48:18;;;;;;;7.57;1.88;;;15.30;99.90;;;;;;4924864;28;20132;-71
2023/08/04 04:50:43;;;;;;;8.73;1.42;;;15.30;99.90;;;;;;4931398;28;20059;-71
2023/08/04 04:53:09;;;;;;;10.65;1.50;;;15.30;99.90;;;;;;4933710;28;21788;-71
2023/08/04 04:55:35;;;;;;;6.85;1.55;;;15.30;99.90;;;;;;4929337;28;20040;-70
2023/08/04 04:58:01;;;;;;;5.63;1.38;;;15.30;99.90;;;;;;4923108;28;20043;-71
2023/08/04 05:00:26;;;;;;;5.00;1.10;;;15.40;99.90;;;;;;4927381;29;20036;-71
2023/08/04 05:02:52;;;;;;;6.68;1.30;;;15.40;99.90;;;;;;4926501;28;20151;-71
2023/08/04 05:05:17;;;;;;;7.63;2.08;;;15.40;99.90;;;;;;4957960;28;20046;-71
2023/08/04 05:07:43;;;;;;;4.95;1.50;;;15.40;99.90;;;;;;4927400;29;20032;-70
2023/08/04 05:10:09;;;;;;;7.20;1.27;;;15.50;99.90;;;;;;4919476;28;20066;-71
2023/08/04 05:12:35;;;;;;;3.17;1.20;;;15.50;99.90;;;;;;4917058;28;20047;-71
2023/08/04 05:15:01;;;;;;;3.97;1.10;;;15.50;99.90;;;;;;4911223;29;20040;-70
2023/08/04 05:17:26;;;;;;;5.60;1.27;;;15.50;99.90;;;;;;4923505;28;20132;-72
2023/08/04 05:19:52;;;;;;;8.38;1.92;;;15.60;99.90;;;;;;4917758;29;20039;-70
2023/08/04 05:22:17;;;;;;;6.55;1.20;;;15.60;99.90;;;;;;4919724;28;20438;-71
2023/08/04 05:24:43;;;;;;;3.90;1.23;;;15.60;99.90;;;;;;4919630;28;20089;-70
2023/08/04 05:27:08;;;;;;;5.10;1.67;;;15.60;99.90;;;;;;4912731;28;20040;-70
2023/08/04 05:29:34;;;;;;;4.65;1.45;;;15.60;99.90;;;;;;4919213;29;20032;-71
2023/08/04 05:32:00;;;;;;;6.30;1.60;;;15.70;99.90;;;;;;4919401;28;20040;-72
2023/08/04 05:34:26;;;;;;;4.95;1.83;;;15.70;99.90;;;;;;4917660;28;20466;-69
2023/08/04 05:36:52;;;;;;;4.50;1.70;;;15.80;99.90;;;;;;4914067;28;20052;-70
2023/08/04 05:39:17;;;;;;;6.00;1.70;;;15.80;99.90;;;;;;4938695;28;20064;-70
2023/08/04 05:41:45;;;;;;;3.10;1.13;;;15.80;99.90;;;;;;4943937;28;20035;-71
2023/08/04 05:44:11;;;;;;;5.57;1.00;;;15.90;99.90;;;;;;4923035;28;20585;-70
2023/08/04 05:46:36;;;;;;;5.95;1.38;;;15.90;99.90;;;;;;4929717;28;20089;-71
2023/08/04 05:49:02;;;;;;;4.68;0.95;;;15.90;99.90;;;;;;4925434;28;20043;-70
2023/08/04 05:51:27;;;;;;;4.80;1.30;;;16.00;99.90;;;;;;4926235;29;20050;-70
2023/08/04 05:53:53;;;;;;;5.20;1.45;;;16.10;99.90;;;;;;4925735;28;20054;-70
2023/08/04 05:56:18;;;;;;;7.53;1.38;;;16.10;99.90;;;;;;4927884;28;20043;-71
2023/08/04 05:58:44;;;;;;;3.58;1.20;;;16.10;99.90;;;;;;4922968;29;20114;-70
2023/08/04 06:01:10;;;;;;;3.72;1.00;;;16.20;99.90;;;;;;4927083;28;22879;-72
2023/08/04 06:03:35;;;;;;;3.45;1.25;;;16.20;99.90;;;;;;4928035;28;20063;-71
2023/08/04 06:06:01;;;;;;;7.30;1.67;;;16.20;99.90;;;;;;4925495;28;20043;-70
2023/08/04 06:08:26;;;;;;;4.68;1.55;;;16.30;99.90;;;;;;4926482;29;20067;-71
2023/08/04 06:10:52;;;;;;;2.50;1.00;;;16.30;99.90;;;;;;4924280;28;20118;-70
2023/08/04 06:13:18;;;;;;;4.97;1.10;;;16.40;99.90;;;;;;4925656;29;20078;-71
2023/08/04 06:15:43;;;;;;;3.17;0.88;;;16.40;99.90;;;;;;4927381;28;20039;-71
2023/08/04 06:18:09;;;;;;;3.85;1.08;;;16.40;99.90;;;;;;4926905;28;20039;-71
2023/08/04 06:20:34;;;;;;;5.03;0.95;;;16.40;99.90;;;;;;4926595;29;20027;-71
2023/08/04 06:23:00;;;;;;;1.88;1.00;;;16.40;99.90;;;;;;4927261;28;20051;-70
2023/08/04 06:25:25;;;;;;;4.88;1.80;;;16.60;99.90;;;;;;4927889;28;20028;-70
2023/08/04 06:27:53;;;;;;;4.63;1.17;;;16.60;99.90;;;;;;4926491;28;20086;-71
2023/08/04 06:30:18;;;;;;;5.20;1.42;;;16.70;99.90;;;;;;4926670;29;20047;-70
2023/08/04 06:32:46;;;;;;;4.35;1.40;;;16.70;99.90;;;;;;4927265;29;20043;-70
2023/08/04 06:35:11;;;;;;;6.70;0.93;;;16.70;99.90;;;;;;4925170;28;20043;-70
2023/08/04 06:37:37;;;;;;;3.75;0.73;;;16.80;99.90;;;;;;4968397;28;20055;-70
2023/08/04 06:40:04;;;;;;;3.30;0.70;;;16.80;99.90;;;;;;4958401;28;20051;-72
2023/08/04 06:42:30;;;;;;;14.68;1.10;;;16.90;99.90;;;;;;4948764;28;20074;-73
2023/08/04 06:44:56;;;;;;;2.70;0.60;;;17.00;99.90;;;;;;4967510;28;20127;-72
2023/08/04 06:47:21;;;;;;;1.85;0.70;;;17.10;99.90;;;;;;4927333;28;20055;-72
2023/08/04 06:49:47;;;;;;;4.13;1.33;;;17.10;99.90;;;;;;4926740;28;20078;-70
2023/08/04 06:52:12;;;;;;;4.25;0.75;;;17.20;99.90;;;;;;4924514;28;20051;-71
2023/08/04 06:54:38;;;;;;;3.22;0.85;;;17.20;99.90;;;;;;4926831;28;20040;-70
2023/08/04 06:57:04;;;;;;;2.35;0.90;;;17.20;99.90;;;;;;4926348;28;20857;-71
2023/08/04 06:59:30;;;;;;;3.45;0.43;;;17.20;99.90;;;;;;4922465;29;20067;-71
2023/08/04 07:01:56;;;;;;;2.63;0.90;;;17.20;99.90;;;;;;4948780;28;20071;-72
2023/08/04 07:04:21;;;;;;;3.33;0.55;;;17.20;99.90;;;;;;4963082;28;20084;-71
2023/08/04 07:06:47;;;;;;;1.33;0.52;;;17.40;99.90;;;;;;4965305;28;20049;-72
2023/08/04 07:09:12;;;;;;;4.97;0.52;;;17.40;99.90;;;;;;4933535;28;20571;-72
2023/08/04 07:11:38;;;;;;;5.00;0.60;;;17.50;99.90;;;;;;4938485;28;20040;-72
2023/08/04 07:14:04;;;;;;;4.05;0.88;;;17.60;99.90;;;;;;4928282;28;20061;-72
2023/08/04 07:16:29;;;;;;;2.00;0.80;;;17.60;99.90;;;;;;4965108;28;20040;-72
2023/08/04 07:18:55;;;;;;;3.40;0.47;;;17.60;99.90;;;;;;4932053;28;20052;-71
2023/08/04 07:21:20;;;;;;;3.63;1.08;;;17.70;99.90;;;;;;4941429;28;20128;-71
2023/08/04 07:23:46;;;;;;;3.45;0.50;;;17.70;99.90;;;;;;4946299;28;20060;-73
2023/08/04 07:26:12;;;;;;;3.10;0.55;;;17.80;99.90;;;;;;4938732;28;20480;-71
2023/08/04 07:28:37;;;;;;;3.72;0.90;;;17.80;99.90;;;;;;4952502;28;20083;-72
2023/08/04 07:31:04;;;;;;;1.70;0.47;;;17.80;99.90;;;;;;5003654;28;20107;-71
2023/08/04 07:33:30;;;;;;;2.92;0.90;;;18.00;99.90;;;;;;4971995;28;20487;-73
2023/08/04 07:35:56;;;;;;;4.07;0.63;;;18.00;99.90;;;;;;4967958;28;20146;-71
2023/08/04 07:38:23;;;;;;;1.80;0.52;;;18.10;99.90;;;;;;4962829;28;20041;-72
2023/08/04 07:40:49;;;;;;;4.63;0.70;;;18.10;99.90;;;;;;5020831;28;20033;-72
2023/08/04 07:43:15;;;;;;;4.72;0.60;;;18.10;99.90;;;;;;4928117;28;20055;-71
2023/08/04 07:45:41;;;;;;;3.90;0.60;;;18.10;99.90;;;;;;4985022;28;20058;-72
2023/08/04 07:48:07;;;;;;;3.75;0.50;;;18.00;99.90;;;;;;4990480;28;20035;-70
2023/08/04 07:50:36;;;;;;;1.20;0.50;;;18.00;99.90;;;;;;4972561;28;20079;-72
2023/08/04 07:53:01;;;;;;;1.55;0.40;;;18.00;99.90;;;;;;4954649;28;20165;-70
2023/08/04 07:55:27;;;;;;;1.33;0.30;;;17.90;99.90;;;;;;4949355;28;20283;-70
2023/08/04 07:57:52;;;;;;;2.30;0.47;;;17.80;99.90;;;;;;4976227;28;20040;-72
2023/08/04 08:00:18;;;;;;;6.13;1.02;;;17.70;99.90;;;;;;4953817;28;20041;-71
2023/08/04 08:02:43;;;;;;;3.58;0.75;;;17.70;99.90;;;;;;4980504;28;20037;-72
2023/08/04 08:05:09;;;;;;;6.25;0.90;;;17.60;99.90;;;;;;4935963;28;20085;-69
2023/08/04 08:07:35;;;;;;;2.40;0.68;;;17.60;99.90;;;;;;4957765;28;20473;-70
2023/08/04 08:10:01;;;;;;;5.20;0.82;;;17.60;99.90;;;;;;4956176;28;20064;-72
2023/08/04 08:12:26;;;;;;;1.58;0.60;;;17.60;99.90;;;;;;4938055;28;20036;-69
2023/08/04 08:14:52;;;;;;;1.80;0.38;;;17.60;99.90;;;;;;4975532;28;20049;-71
2023/08/04 08:17:18;;;;;;;1.85;0.88;;;17.70;99.90;;;;;;4937998;28;20047;-72
2023/08/04 08:19:44;;;;;;;3.50;0.77;;;17.80;99.90;;;;;;4972774;28;20040;-69
2023/08/04 08:22:09;;;;;;;2.67;0.60;;;18.10;99.90;;;;;;4962570;28;20083;-72
2023/08/04 08:24:35;;;;;;;1.95;0.70;;;18.10;99.90;;;;;;4986770;28;20038;-73
2023/08/04 08:27:01;;;;;;;3.55;0.60;;;18.20;99.90;;;;;;4966914;28;20706;-70
2023/08/04 08:29:27;;;;;;;4.75;0.63;;;18.30;99.90;;;;;;4967306;28;20045;-74
2023/08/04 08:31:52;;;;;;;1.15;0.63;;;18.40;99.90;;;;;;4964746;28;20051;-73
2023/08/04 08:34:18;;;;;;;4.18;0.75;;;18.50;99.90;;;;;;4977131;28;20033;-73
2023/08/04 08:36:43;;;;;;;3.60;1.13;;;18.50;99.90;;;;;;4927687;28;20142;-72
2023/08/04 08:39:09;;;;;;;4.07;0.60;;;18.60;99.90;;;;;;4978975;28;20032;-73
2023/08/04 08:41:34;;;;;;;5.32;0.70;;;18.70;99.90;;;;;;4977326;28;20036;-71
2023/08/04 08:44:00;;;;;;;3.55;0.50;;;18.90;99.90;;;;;;4985368;28;20053;-71
2023/08/04 08:46:26;;;;;;;2.03;0.55;;;19.00;99.90;;;;;;4962893;28;20049;-70
2023/08/04 08:48:58;;;;;;;2.58;0.52;;;19.20;99.90;;;;;;4957981;28;20032;-71
2023/08/04 08:51:25;;;;;;;3.33;0.75;;;19.20;99.90;;;;;;4988763;28;20633;-69
2023/08/04 08:53:52;;;;;;;4.47;1.30;;;19.20;99.90;;;;;;4965555;28;20048;-72
2023/08/04 08:56:18;;;;;;;4.00;1.00;;;19.20;99.90;;;;;;4934330;28;20055;-70
2023/08/04 08:58:44;;;;;;;3.72;0.77;;;19.30;99.90;;;;;;4945126;28;20029;-72
2023/08/04 09:01:10;;;;;;;2.53;0.82;;;19.60;99.90;;;;;;4941755;28;20511;-71
2023/08/04 09:03:36;;;;;;;2.35;0.60;;;19.60;99.90;;;;;;4946418;28;20035;-70
2023/08/04 09:06:02;;;;;;;7.88;1.73;;;19.50;99.90;;;;;;4940599;28;20047;-72
2023/08/04 09:08:29;;;;;;;2.97;0.50;;;19.30;99.90;;;;;;4957908;28;20032;-72
2023/08/04 09:10:56;;;;;;;4.15;0.82;;;19.10;99.90;;;;;;4953967;28;20543;-73
2023/08/04 09:13:22;;;;;;;10.35;1.60;;;18.90;99.90;;;;;;4933766;28;20036;-72
2023/08/04 09:15:53;;;;;;;2.13;0.30;;;18.80;99.90;;;;;;4949501;28;20026;-71
2023/08/04 09:18:29;;;;;;;3.38;0.50;;;18.70;99.90;;;;;;4992115;28;20049;-72
2023/08/04 09:21:08;;;;;;;4.65;0.75;;;18.70;99.90;;;;;;4930052;28;20120;-71
2023/08/04 09:23:40;;;;;;;2.95;0.50;;;18.70;99.90;;;;;;4953291;28;20036;-70
2023/08/04 09:26:06;;;;;;;3.80;0.73;;;18.80;99.90;;;;;;4948289;28;20489;-72
2023/08/04 09:28:32;;;;;;;3.25;0.40;;;19.30;99.90;;;;;;4975673;28;20078;-71
2023/08/04 09:31:04;;;;;;;6.03;1.30;;;19.70;99.90;;;;;;4952826;28;20028;-72
2023/08/04 09:33:31;;;;;;;4.63;1.02;;;19.70;99.90;;;;;;4925698;28;20056;-72
2023/08/04 09:36:11;;;;;;;4.47;1.05;;;19.60;99.90;;;;;;4950062;28;20460;-75
2023/08/04 09:38:38;;;;;;;6.00;0.75;;;19.40;99.90;;;;;;4951807;28;20034;-72
2023/08/04 09:41:12;;;;;;;6.03;0.93;;;19.00;99.90;;;;;;4940790;28;20043;-72
2023/08/04 09:43:44;;;;;;;6.03;1.10;;;18.80;99.90;;;;;;4949151;28;20492;-71
2023/08/04 09:46:10;;;;;;;6.75;0.55;;;18.50;99.90;;;;;;4969381;28;20134;-71
2023/08/04 09:48:36;;;;;;;3.47;0.43;;;18.30;99.90;;;;;;4955214;28;20075;-70
2023/08/04 09:51:12;;;;;;;8.52;0.80;;;18.10;99.90;;;;;;4950367;28;20066;-71
2023/08/04 09:53:46;;;;;;;4.15;0.60;;;18.10;99.90;;;;;;4947975;28;20551;-71
2023/08/04 09:56:14;;;;;;;2.47;0.50;;;18.30;99.90;;;;;;4970284;28;20045;-71
2023/08/04 09:58:40;;;;;;;2.60;0.50;;;18.50;99.90;;;;;;4950208;28;20034;-70
2023/08/04 10:01:06;;;;;;;3.92;0.68;;;18.80;99.90;;;;;;4957409;28;20118;-72
2023/08/04 10:03:35;;;;;;;4.35;0.60;;;18.90;99.90;;;;;;4955321;28;20039;-70
2023/08/04 10:06:04;;;;;;;2.50;0.68;;;18.90;99.90;;;;;;4931154;28;20040;-71
2023/08/04 10:08:31;;;;;;;2.70;0.52;;;18.90;99.90;;;;;;4948476;28;20035;-71
2023/08/04 10:10:58;;;;;;;2.03;0.30;;;18.90;99.90;;;;;;4957728;28;20040;-71
2023/08/04 10:13:33;;;;;;;5.07;0.95;;;19.20;99.90;;;;;;4960791;28;20120;-71
2023/08/04 10:16:02;;;;;;;2.67;0.45;;;19.50;99.90;;;;;;4930084;28;21087;-71
2023/08/04 10:18:47;;;;;;;1.33;0.30;;;19.80;99.90;;;;;;4946525;28;20398;-71
2023/08/04 10:21:13;;;;;;;2.25;0.25;;;20.10;99.90;;;;;;4956459;28;20033;-71
2023/08/04 10:23:40;;;;;;;2.20;0.65;;;20.10;99.90;;;;;;4962782;28;20040;-71
2023/08/04 10:26:05;;;;;;;2.17;0.30;;;20.10;99.90;;;;;;4937409;28;20555;-70
2023/08/04 10:28:32;;;;;;;2.88;0.30;;;20.00;99.90;;;;;;4974839;28;20111;-70
2023/08/04 10:31:11;;;;;;;2.38;0.28;;;20.10;99.90;;;;;;4952785;28;20022;-71
2023/08/04 10:33:37;;;;;;;2.90;0.70;;;20.10;99.90;;;;;;4939665;28;20039;-70
2023/08/04 10:36:09;;;;;;;2.88;0.32;;;20.30;99.90;;;;;;4954493;28;20039;-72
2023/08/04 10:38:49;;;;;;;2.83;0.30;;;20.30;99.90;;;;;;4940595;28;20458;-71
2023/08/04 10:41:15;;;;;;;2.05;0.70;;;20.30;99.90;;;;;;4964706;28;20040;-73
2023/08/04 10:43:58;;;;;;;2.30;0.45;;;20.50;99.90;;;;;;4959036;28;20495;-72
2023/08/04 10:46:24;;;;;;;3.60;0.30;;;20.80;99.90;;;;;;4963752;28;20099;-71
2023/08/04 10:48:50;;;;;;;6.85;0.40;;;20.80;99.90;;;;;;4971681;28;20787;-71
2023/08/04 10:51:17;;;;;;;1.83;0.35;;;20.70;99.90;;;;;;4942883;28;20048;-71
2023/08/04 10:53:43;;;;;;;0.43;0.10;;;20.80;99.90;;;;;;4962121;28;20408;-71
2023/08/04 10:56:09;;;;;;;2.00;0.65;;;20.80;99.90;;;;;;4957306;28;20035;-71
2023/08/04 10:58:35;;;;;;;3.25;0.30;;;21.00;99.90;;;;;;4945756;28;20045;-72
2023/08/04 11:01:01;;;;;;;2.40;0.20;;;21.00;99.90;;;;;;4938770;28;20030;-70
2023/08/04 11:03:36;;;;;;;3.63;0.20;;;20.90;99.90;;;;;;4964495;28;20051;-71
2023/08/04 11:06:03;;;;;;;1.05;0.10;;;20.80;99.90;;;;;;4945084;28;20032;-71
2023/08/04 11:08:29;;;;;;;0.93;0.30;;;20.70;99.90;;;;;;4926192;28;20044;-71
2023/08/04 11:10:58;;;;;;;2.28;0.22;;;20.50;99.90;;;;;;4945203;28;20043;-70
2023/08/04 11:13:25;;;;;;;0.85;0.20;;;20.50;99.90;;;;;;4938713;28;20492;-70
2023/08/04 11:15:53;;;;;;;3.42;0.40;;;20.80;99.90;;;;;;4928753;28;20043;-70
2023/08/04 11:18:27;;;;;;;3.75;0.25;;;20.70;99.90;;;;;;4926221;28;20119;-71
2023/08/04 11:20:53;;;;;;;1.73;0.30;;;20.60;99.90;;;;;;4917948;28;20518;-71
2023/08/04 11:23:30;;;;;;;1.88;0.47;;;20.50;99.90;;;;;;4937182;28;20028;-71
2023/08/04 11:25:56;;;;;;;1.38;0.22;;;20.50;99.90;;;;;;4935200;28;20146;-71
2023/08/04 11:28:22;;;;;;;5.47;0.35;;;20.80;99.90;;;;;;4972677;28;20484;-72
2023/08/04 11:30:48;;;;;;;2.10;0.20;;;21.20;99.90;;;;;;4936078;28;20064;-71
2023/08/04 11:33:16;;;;;;;0.50;0.30;;;21.50;99.90;;;;;;4965127;28;20036;-71
2023/08/04 11:35:43;;;;;;;2.38;0.20;;;21.60;99.90;;;;;;4954481;28;20099;-71
2023/08/04 11:38:09;;;;;;;0.82;0.20;;;21.60;99.90;;;;;;4923803;28;20051;-71
2023/08/04 11:40:36;;;;;;;0.60;0.20;;;21.40;99.90;;;;;;4974822;28;20041;-71
2023/08/04 11:43:02;;;;;;;1.17;0.10;;;21.30;99.90;;;;;;4936913;28;20506;-71
2023/08/04 11:45:31;;;;;;;2.92;0.13;;;21.50;99.90;;;;;;4965851;28;20043;-71
2023/08/04 11:47:57;;;;;;;1.67;0.20;;;21.70;99.90;;;;;;4956569;28;20028;-71
2023/08/04 11:50:25;;;;;;;0.93;0.00;;;21.90;99.90;;;;;;4980042;28;20370;-71
2023/08/04 11:52:51;;;;;;;1.05;0.25;;;21.80;99.90;;;;;;4946710;28;20641;-72
2023/08/04 11:55:17;;;;;;;2.28;0.65;;;21.80;99.90;;;;;;4957684;28;20036;-71
2023/08/04 11:57:54;;;;;;;1.02;0.22;;;21.80;99.90;;;;;;4944324;28;20051;-71
2023/08/04 12:00:36;;;;;;;2.47;0.20;;;21.80;99.90;;;;;;4930845;28;20036;-71
2023/08/04 12:03:03;;;;;;;1.85;0.20;;;21.90;99.90;;;;;;4946354;28;20041;-71
2023/08/04 12:05:36;;;;;;;0.65;0.13;;;21.90;99.90;;;;;;4972355;28;20113;-70
2023/08/04 12:08:11;;;;;;;1.25;0.20;;;21.80;99.90;;;;;;4944412;28;20076;-70
2023/08/04 12:10:37;;;;;;;0.88;0.10;;;21.80;99.90;;;;;;4959340;28;20580;-72
2023/08/04 12:13:03;;;;;;;0.40;0.20;;;21.60;99.90;;;;;;4976924;28;20043;-72
2023/08/04 12:15:28;;;;;;;1.25;0.38;;;21.60;99.90;;;;;;4943962;28;20493;-70
2023/08/04 12:17:54;;;;;;;2.67;0.32;;;21.60;99.90;;;;;;4941701;28;20032;-71
2023/08/04 12:20:19;;;;;;;0.90;0.10;;;21.60;99.90;;;;;;4947044;28;20060;-71
2023/08/04 12:22:45;;;;;;;3.10;0.30;;;21.70;99.90;;;;;;4977383;28;20522;-71
2023/08/04 12:25:12;;;;;;;1.20;0.20;;;21.80;99.90;;;;;;4945056;28;20537;-71
2023/08/04 12:27:40;;;;;;;1.15;0.10;;;21.60;99.90;;;;;;4989933;28;20053;-71
2023/08/04 12:30:06;;;;;;;1.13;0.15;;;21.60;99.90;;;;;;4986840;28;20584;-71
2023/08/04 12:32:32;;;;;;;1.45;0.30;;;21.50;99.90;;;;;;4942193;28;20045;-71
2023/08/04 12:34:58;;;;;;;1.58;0.20;;;21.40;99.90;;;;;;4944437;28;20068;-73
2023/08/04 12:37:25;;;;;;;1.08;0.40;;;21.50;99.90;;;;;;4960455;28;20483;-70
2023/08/04 12:39:51;;;;;;;0.93;0.17;;;21.60;99.90;;;;;;4959763;28;20037;-71
2023/08/04 12:42:16;;;;;;;2.10;0.57;;;21.70;99.90;;;;;;4977935;28;20040;-70
2023/08/04 12:44:42;;;;;;;0.60;0.10;;;21.80;99.90;;;;;;4933601;28;20032;-71